createdAt,value
2022-10-28T00:02:57.497Z,0
2022-10-28T00:08:01.254Z,0
2022-10-28T00:13:05.340Z,0
2022-10-28T00:18:09.538Z,0
2022-10-28T00:23:13.697Z,0
2022-10-28T00:28:17.844Z,0
2022-10-28T00:33:22.012Z,0
2022-10-28T00:38:26.176Z,0
2022-10-28T00:43:30.326Z,0
2022-10-28T00:48:34.496Z,0
2022-10-28T00:53:38.616Z,0
2022-10-28T00:58:42.822Z,0
2022-10-28T01:03:46.977Z,0
2022-10-28T01:08:51.116Z,0
2022-10-28T01:13:55.276Z,0
2022-10-28T01:18:59.445Z,0
2022-10-28T01:24:03.626Z,0
2022-10-28T01:29:07.787Z,0
2022-10-28T01:34:11.915Z,0
2022-10-28T01:39:16.089Z,0
2022-10-28T01:44:20.260Z,0
2022-10-28T01:49:24.413Z,0
2022-10-28T01:54:28.515Z,0
2022-10-28T01:59:32.717Z,0
2022-10-28T02:04:36.882Z,0
2022-10-28T02:09:41.033Z,0
2022-10-28T02:14:45.180Z,0
2022-10-28T02:24:53.480Z,0
2022-10-28T02:29:57.671Z,0
2022-10-28T02:35:01.818Z,0
2022-10-28T02:40:06.358Z,0
2022-10-28T02:45:10.136Z,0
2022-10-28T02:50:14.336Z,0
2022-10-28T02:55:18.468Z,0
2022-10-28T03:00:22.617Z,0
2022-10-28T03:05:24.892Z,0
2022-10-28T03:10:29.087Z,0
2022-10-28T03:15:33.202Z,0
2022-10-28T03:20:37.393Z,0
2022-10-28T03:25:41.520Z,0
2022-10-28T03:30:45.716Z,0
2022-10-28T03:35:47.955Z,0
2022-10-28T03:40:52.096Z,0
2022-10-28T03:45:56.284Z,0
2022-10-28T03:51:00.456Z,0
2022-10-28T03:56:04.580Z,0
2022-10-28T04:01:08.854Z,0
2022-10-28T04:06:12.900Z,0
2022-10-28T04:11:17.099Z,0
2022-10-28T04:16:21.216Z,0
2022-10-28T04:21:25.396Z,0
2022-10-28T04:26:29.555Z,0
2022-10-28T04:31:33.718Z,0
2022-10-28T04:36:37.893Z,0
2022-10-28T04:41:41.984Z,0
2022-10-28T04:46:46.293Z,0
2022-10-28T04:51:50.433Z,0
2022-10-28T04:56:54.499Z,0
2022-10-28T05:01:58.811Z,0
2022-10-28T05:07:02.814Z,0
2022-10-28T05:12:06.994Z,0
2022-10-28T05:17:11.150Z,0
2022-10-28T05:22:15.270Z,0
2022-10-28T05:27:19.453Z,0
2022-10-28T05:32:23.598Z,0
2022-10-28T05:37:27.778Z,0
2022-10-28T05:42:31.913Z,0
2022-10-28T05:47:39.213Z,0
2022-10-28T05:52:40.276Z,0
2022-10-28T05:57:44.427Z,3
2022-10-28T06:02:48.554Z,9
2022-10-28T06:07:52.721Z,20
2022-10-28T06:12:55.368Z,43
2022-10-28T06:17:59.515Z,80
2022-10-28T06:23:03.680Z,155
2022-10-28T06:28:10.325Z,235
2022-10-28T06:33:12.017Z,324
2022-10-28T06:38:16.175Z,459
2022-10-28T06:43:20.351Z,601
2022-10-28T06:48:25.987Z,766
2022-10-28T06:53:30.191Z,900
2022-10-28T06:58:34.342Z,941
2022-10-28T07:03:38.532Z,931
2022-10-28T07:08:42.660Z,1137
2022-10-28T07:13:48.934Z,1208
2022-10-28T07:18:51.011Z,1328
2022-10-28T07:23:55.145Z,1568
2022-10-28T07:28:59.331Z,2525
2022-10-28T07:34:03.491Z,2267
2022-10-28T07:39:07.636Z,2585
2022-10-28T07:44:11.812Z,2827
2022-10-28T07:49:15.939Z,3114
2022-10-28T07:54:20.127Z,3499
2022-10-28T07:59:26.727Z,3504
2022-10-28T08:04:28.405Z,3391
2022-10-28T08:09:32.544Z,3250
2022-10-28T08:14:36.726Z,3216
2022-10-28T08:19:40.908Z,3201
2022-10-28T08:24:45.300Z,2976
2022-10-28T08:29:49.156Z,2613
2022-10-28T08:34:53.371Z,2439
2022-10-28T08:39:57.541Z,2430
2022-10-28T08:45:01.683Z,2335
2022-10-28T08:50:05.843Z,2316
2022-10-28T08:55:10.003Z,2436
2022-10-28T09:00:14.281Z,2503
2022-10-28T09:10:20.651Z,2647
2022-10-28T09:15:24.809Z,2702
2022-10-28T09:20:28.962Z,2585
2022-10-28T09:25:33.089Z,2445
2022-10-28T09:30:37.225Z,2516
2022-10-28T09:35:41.406Z,2811
2022-10-28T09:40:45.573Z,3043
2022-10-28T09:45:49.732Z,3035
2022-10-28T09:50:53.880Z,3274
2022-10-28T09:55:58.119Z,3293
2022-10-28T10:01:02.213Z,3293
2022-10-28T10:06:06.384Z,3696
2022-10-28T10:11:10.503Z,3951
2022-10-28T10:16:14.678Z,3855
2022-10-28T10:21:18.839Z,3946
2022-10-28T10:31:27.288Z,5124
2022-10-28T10:36:31.323Z,5566
2022-10-28T10:41:35.452Z,5823
2022-10-28T10:46:39.636Z,5395
2022-10-28T10:51:43.789Z,4846
2022-10-28T10:56:48.092Z,4809
2022-10-28T11:01:52.230Z,5195
2022-10-28T11:06:58.852Z,5472
2022-10-28T11:12:00.572Z,5632
2022-10-28T11:17:04.745Z,6000
2022-10-28T11:22:08.823Z,6000
2022-10-28T11:27:12.927Z,6005
2022-10-28T11:32:17.099Z,6175
2022-10-28T11:37:21.237Z,6805
2022-10-28T11:42:25.428Z,6025
2022-10-28T11:47:29.556Z,5253
2022-10-28T11:52:33.672Z,5270
2022-10-28T11:57:37.786Z,5483
2022-10-28T12:02:42.047Z,5790
2022-10-28T12:07:46.130Z,6115
2022-10-28T12:12:51.504Z,5694
2022-10-28T12:17:54.906Z,5270
2022-10-28T12:22:58.871Z,4753
2022-10-28T12:28:02.791Z,4690
2022-10-28T12:33:06.900Z,4623
2022-10-28T12:38:11.229Z,4450
2022-10-28T12:43:15.241Z,4147
2022-10-28T12:48:19.405Z,4020
2022-10-28T12:53:23.574Z,3972
2022-10-28T12:58:27.687Z,4113
2022-10-28T13:03:31.905Z,4042
2022-10-28T13:08:36.069Z,3775
2022-10-28T13:13:40.259Z,3896
2022-10-28T13:18:44.353Z,3909
2022-10-28T13:23:48.511Z,3928
2022-10-28T13:28:52.685Z,4312
2022-10-28T13:33:56.816Z,4410
2022-10-28T13:39:01.001Z,4847
2022-10-28T13:44:05.168Z,4771
2022-10-28T13:49:09.312Z,4362
2022-10-28T13:54:13.462Z,3780
2022-10-28T13:59:17.594Z,3535
2022-10-28T14:04:21.806Z,3600
2022-10-28T14:09:25.925Z,3927
2022-10-28T14:14:30.077Z,4098
2022-10-28T14:19:34.252Z,3704
2022-10-28T14:24:38.459Z,3135
2022-10-28T14:29:42.562Z,2730
2022-10-28T14:34:44.855Z,2789
2022-10-28T14:39:48.994Z,3058
2022-10-28T14:44:53.191Z,2929
2022-10-28T14:49:57.318Z,2495
2022-10-28T14:55:01.491Z,2186
2022-10-28T15:00:05.726Z,2039
2022-10-28T15:05:09.806Z,1891
2022-10-28T15:10:13.967Z,1875
2022-10-28T15:15:18.107Z,1809
2022-10-28T15:20:22.287Z,1592
2022-10-28T15:25:26.441Z,1419
2022-10-28T15:30:30.652Z,1342
2022-10-28T15:35:34.755Z,1251
2022-10-28T15:40:38.906Z,1045
2022-10-28T15:45:43.050Z,829
2022-10-28T15:50:47.223Z,634
2022-10-28T15:56:07.873Z,463
2022-10-28T16:00:55.610Z,323
2022-10-28T16:05:59.728Z,222
2022-10-28T16:11:03.849Z,140
2022-10-28T16:16:08.006Z,92
2022-10-28T16:21:12.470Z,60
2022-10-28T16:26:16.363Z,34
2022-10-28T16:31:20.510Z,15
2022-10-28T16:36:24.641Z,5
2022-10-28T16:41:28.788Z,1
2022-10-28T16:46:32.956Z,0
2022-10-28T16:51:37.115Z,0
2022-10-28T16:56:41.289Z,0
2022-10-28T17:01:45.611Z,0
2022-10-28T17:06:49.591Z,0
2022-10-28T17:11:53.781Z,0
2022-10-28T17:16:57.911Z,0
2022-10-28T17:22:05.079Z,0
2022-10-28T17:27:06.238Z,0
2022-10-28T17:32:10.401Z,0
2022-10-28T17:37:14.539Z,0
2022-10-28T17:42:18.713Z,0
2022-10-28T17:47:22.894Z,0
2022-10-28T17:52:27.036Z,0
2022-10-28T17:57:31.215Z,0
2022-10-28T18:02:35.531Z,0
2022-10-28T18:07:39.542Z,0
2022-10-28T18:12:43.680Z,0
2022-10-28T18:17:47.875Z,0
2022-10-28T18:22:52.232Z,0
2022-10-28T18:33:00.349Z,0
2022-10-28T18:38:04.493Z,0
2022-10-28T18:43:08.628Z,0
2022-10-28T18:48:12.764Z,0
2022-10-28T18:53:16.967Z,0
2022-10-28T18:58:21.258Z,0
2022-10-28T19:03:25.335Z,0
2022-10-28T19:08:29.434Z,0
2022-10-28T19:13:33.623Z,0
2022-10-28T19:18:37.844Z,0
2022-10-28T19:23:41.958Z,0
2022-10-28T19:28:46.076Z,0
2022-10-28T19:38:54.559Z,0
2022-10-28T19:43:59.013Z,0
2022-10-28T19:49:02.744Z,0
2022-10-28T19:54:06.894Z,0
2022-10-28T19:59:11.061Z,0
2022-10-28T20:04:13.316Z,0
2022-10-28T20:09:17.432Z,0
2022-10-28T20:14:21.740Z,0
2022-10-28T20:19:25.785Z,0
2022-10-28T20:24:29.936Z,0
2022-10-28T20:29:34.091Z,0
2022-10-28T20:34:36.357Z,0
2022-10-28T20:39:40.496Z,0
2022-10-28T20:44:44.627Z,0
2022-10-28T20:49:48.814Z,0
2022-10-28T20:54:52.952Z,0
2022-10-28T20:59:57.159Z,0
2022-10-28T21:05:01.322Z,0
2022-10-28T21:10:05.490Z,0
2022-10-28T21:15:09.609Z,0
2022-10-28T21:20:13.785Z,0
2022-10-28T21:25:17.929Z,0
2022-10-28T21:30:22.179Z,0
2022-10-28T21:35:26.241Z,0
2022-10-28T21:40:30.417Z,0
2022-10-28T21:45:34.555Z,0
2022-10-28T21:50:38.697Z,0
2022-10-28T21:55:46.849Z,0
2022-10-28T22:00:47.098Z,0
2022-10-28T22:05:51.229Z,0
2022-10-28T22:10:55.713Z,0
2022-10-28T22:15:59.664Z,0
2022-10-28T22:21:03.844Z,0
2022-10-28T22:31:12.237Z,0
2022-10-28T22:36:16.191Z,0
2022-10-28T22:41:20.400Z,0
2022-10-28T22:46:24.597Z,0
2022-10-28T22:51:28.694Z,0
2022-10-28T22:56:32.812Z,0
2022-10-28T23:01:37.084Z,0
2022-10-28T23:06:41.134Z,0
2022-10-28T23:11:45.295Z,0
2022-10-28T23:16:49.457Z,0
2022-10-28T23:21:53.568Z,0
2022-10-28T23:32:01.893Z,0
2022-10-28T23:37:06.082Z,0
2022-10-28T23:42:10.274Z,0
2022-10-28T23:47:14.370Z,0
2022-10-28T23:52:18.541Z,0
2022-10-28T23:57:22.691Z,0
